sensor_id;sensor_type;location;lat;lon;timestamp;temperature;humidity
52943;DHT22;38809;53.300;6.614;2022-11-04T00:01:17;11.70;99.90
52943;DHT22;38809;53.300;6.614;2022-11-04T00:03:43;11.80;99.90
52943;DHT22;38809;53.300;6.614;2022-11-04T00:06:08;11.70;99.90
52943;DHT22;38809;53.300;6.614;2022-11-04T00:08:35;11.70;99.90
52943;DHT22;38809;53.300;6.614;2022-11-04T00:11:01;11.70;99.90
52943;DHT22;38809;53.300;6.614;2022-11-04T00:13:46;11.60;99.90
52943;DHT22;38809;53.300;6.614;2022-11-04T00:16:12;11.60;99.90
52943;DHT22;38809;53.300;6.614;2022-11-04T00:18:56;11.60;99.90
52943;DHT22;38809;53.300;6.614;2022-11-04T00:21:23;11.60;99.90
52943;DHT22;38809;53.300;6.614;2022-11-04T00:24:10;11.60;99.90
52943;DHT22;38809;53.300;6.614;2022-11-04T00:27:16;11.60;99.90
52943;DHT22;38809;53.300;6.614;2022-11-04T00:30:04;11.60;99.90
52943;DHT22;38809;53.300;6.614;2022-11-04T00:32:31;11.60;99.90
52943;DHT22;38809;53.300;6.614;2022-11-04T00:35:16;11.70;99.90
52943;DHT22;38809;53.300;6.614;2022-11-04T00:37:43;11.70;99.90
52943;DHT22;38809;53.300;6.614;2022-11-04T00:40:12;11.60;99.90
52943;DHT22;38809;53.300;6.614;2022-11-04T00:42:38;11.50;99.90
52943;DHT22;38809;53.300;6.614;2022-11-04T00:45:04;11.50;99.90
52943;DHT22;38809;53.300;6.614;2022-11-04T00:47:30;11.40;99.90
52943;DHT22;38809;53.300;6.614;2022-11-04T00:49:56;11.30;99.90
52943;DHT22;38809;53.300;6.614;2022-11-04T00:52:22;11.30;99.90
52943;DHT22;38809;53.300;6.614;2022-11-04T00:54:47;11.30;99.90
52943;DHT22;38809;53.300;6.614;2022-11-04T00:57:14;11.20;99.90
52943;DHT22;38809;53.300;6.614;2022-11-04T00:59:40;11.10;99.90
52943;DHT22;38809;53.300;6.614;2022-11-04T01:02:09;11.10;99.90
52943;DHT22;38809;53.300;6.614;2022-11-04T01:04:35;11.10;99.90
52943;DHT22;38809;53.300;6.614;2022-11-04T01:07:01;11.10;99.90
52943;DHT22;38809;53.300;6.614;2022-11-04T01:09:27;11.00;99.90
52943;DHT22;38809;53.300;6.614;2022-11-04T01:11:53;10.90;99.90
52943;DHT22;38809;53.300;6.614;2022-11-04T01:14:19;10.90;99.90
52943;DHT22;38809;53.300;6.614;2022-11-04T01:16:45;10.90;99.90
52943;DHT22;38809;53.300;6.614;2022-11-04T01:19:11;10.80;99.90
52943;DHT22;38809;53.300;6.614;2022-11-04T01:21:36;10.80;99.90
52943;DHT22;38809;53.300;6.614;2022-11-04T01:24:02;10.70;99.90
52943;DHT22;38809;53.300;6.614;2022-11-04T01:26:29;10.80;99.90
52943;DHT22;38809;53.300;6.614;2022-11-04T01:28:56;10.70;99.90
52943;DHT22;38809;53.300;6.614;2022-11-04T01:31:27;11.00;99.90
52943;DHT22;38809;53.300;6.614;2022-11-04T01:33:53;10.70;99.90
52943;DHT22;38809;53.300;6.614;2022-11-04T01:36:19;10.60;99.90
52943;DHT22;38809;53.300;6.614;2022-11-04T01:38:45;10.70;99.90
52943;DHT22;38809;53.300;6.614;2022-11-04T01:41:17;10.70;99.90
52943;DHT22;38809;53.300;6.614;2022-11-04T01:46:21;10.60;99.90
52943;DHT22;38809;53.300;6.614;2022-11-04T01:48:49;10.60;99.90
52943;DHT22;38809;53.300;6.614;2022-11-04T01:51:16;10.60;99.90
52943;DHT22;38809;53.300;6.614;2022-11-04T01:53:42;10.70;99.90
52943;DHT22;38809;53.300;6.614;2022-11-04T01:56:11;10.60;99.90
52943;DHT22;38809;53.300;6.614;2022-11-04T01:58:41;10.60;99.90
52943;DHT22;38809;53.300;6.614;2022-11-04T02:01:10;10.70;99.90
52943;DHT22;38809;53.300;6.614;2022-11-04T02:03:40;11.70;99.90
52943;DHT22;38809;53.300;6.614;2022-11-04T02:06:10;10.70;99.90
52943;DHT22;38809;53.300;6.614;2022-11-04T02:08:37;10.60;99.90
52943;DHT22;38809;53.300;6.614;2022-11-04T02:11:04;10.70;99.90
52943;DHT22;38809;53.300;6.614;2022-11-04T02:13:32;10.60;99.90
52943;DHT22;38809;53.300;6.614;2022-11-04T02:19:04;10.60;99.90
52943;DHT22;38809;53.300;6.614;2022-11-04T02:29:50;10.60;99.90
52943;DHT22;38809;53.300;6.614;2022-11-04T02:32:55;10.60;99.90
52943;DHT22;38809;53.300;6.614;2022-11-04T02:35:20;10.60;99.90
52943;DHT22;38809;53.300;6.614;2022-11-04T02:37:53;10.60;99.90
52943;DHT22;38809;53.300;6.614;2022-11-04T02:46:18;10.60;99.90
52943;DHT22;38809;53.300;6.614;2022-11-04T02:49:01;10.60;99.90
52943;DHT22;38809;53.300;6.614;2022-11-04T02:51:34;10.50;99.90
52943;DHT22;38809;53.300;6.614;2022-11-04T02:54:13;10.60;99.90
52943;DHT22;38809;53.300;6.614;2022-11-04T02:56:44;10.50;99.90
52943;DHT22;38809;53.300;6.614;2022-11-04T02:59:13;10.70;99.90
52943;DHT22;38809;53.300;6.614;2022-11-04T03:01:41;10.40;99.90
52943;DHT22;38809;53.300;6.614;2022-11-04T03:04:12;10.50;99.90
52943;DHT22;38809;53.300;6.614;2022-11-04T03:06:40;10.40;99.90
52943;DHT22;38809;53.300;6.614;2022-11-04T03:09:07;10.40;99.90
52943;DHT22;38809;53.300;6.614;2022-11-04T03:11:37;10.40;99.90
52943;DHT22;38809;53.300;6.614;2022-11-04T03:14:09;10.30;99.90
52943;DHT22;38809;53.300;6.614;2022-11-04T03:16:50;10.30;99.90
52943;DHT22;38809;53.300;6.614;2022-11-04T03:19:46;10.30;99.90
52943;DHT22;38809;53.300;6.614;2022-11-04T03:22:18;10.40;99.90
52943;DHT22;38809;53.300;6.614;2022-11-04T03:24:45;10.40;99.90
52943;DHT22;38809;53.300;6.614;2022-11-04T03:30:08;10.40;99.90
52943;DHT22;38809;53.300;6.614;2022-11-04T03:33:04;10.50;99.90
52943;DHT22;38809;53.300;6.614;2022-11-04T03:35:32;10.50;99.90
52943;DHT22;38809;53.300;6.614;2022-11-04T03:37:58;10.50;99.90
52943;DHT22;38809;53.300;6.614;2022-11-04T03:40:25;10.50;99.90
52943;DHT22;38809;53.300;6.614;2022-11-04T03:43:10;10.60;99.90
52943;DHT22;38809;53.300;6.614;2022-11-04T03:45:38;10.50;99.90
52943;DHT22;38809;53.300;6.614;2022-11-04T03:48:04;10.50;99.90
52943;DHT22;38809;53.300;6.614;2022-11-04T03:50:32;10.50;99.90
52943;DHT22;38809;53.300;6.614;2022-11-04T03:53:00;10.50;99.90
52943;DHT22;38809;53.300;6.614;2022-11-04T04:00:51;10.50;99.90
52943;DHT22;38809;53.300;6.614;2022-11-04T04:03:25;10.50;99.90
52943;DHT22;38809;53.300;6.614;2022-11-04T04:05:56;10.50;99.90
52943;DHT22;38809;53.300;6.614;2022-11-04T04:11:07;10.50;99.90
52943;DHT22;38809;53.300;6.614;2022-11-04T04:16:26;10.50;99.90
52943;DHT22;38809;53.300;6.614;2022-11-04T04:19:15;10.50;99.90
52943;DHT22;38809;53.300;6.614;2022-11-04T04:21:51;10.50;99.90
52943;DHT22;38809;53.300;6.614;2022-11-04T04:24:20;10.40;99.90
52943;DHT22;38809;53.300;6.614;2022-11-04T04:27:06;10.40;99.90
52943;DHT22;38809;53.300;6.614;2022-11-04T04:29:51;10.40;99.90
52943;DHT22;38809;53.300;6.614;2022-11-04T04:32:19;10.20;99.90
52943;DHT22;38809;53.300;6.614;2022-11-04T04:34:46;10.20;99.90
52943;DHT22;38809;53.300;6.614;2022-11-04T04:37:20;10.40;99.90
52943;DHT22;38809;53.300;6.614;2022-11-04T04:39:49;10.10;99.90
52943;DHT22;38809;53.300;6.614;2022-11-04T04:42:35;10.10;99.90
52943;DHT22;38809;53.300;6.614;2022-11-04T04:45:32;10.50;99.90
52943;DHT22;38809;53.300;6.614;2022-11-04T04:47:59;10.10;99.90
52943;DHT22;38809;53.300;6.614;2022-11-04T04:50:34;10.10;99.90
52943;DHT22;38809;53.300;6.614;2022-11-04T04:53:01;10.10;99.90
52943;DHT22;38809;53.300;6.614;2022-11-04T04:55:29;10.10;99.90
52943;DHT22;38809;53.300;6.614;2022-11-04T04:57:56;10.10;99.90
52943;DHT22;38809;53.300;6.614;2022-11-04T05:00:22;10.10;99.90
52943;DHT22;38809;53.300;6.614;2022-11-04T05:02:49;10.20;99.90
52943;DHT22;38809;53.300;6.614;2022-11-04T05:05:14;10.10;99.90
52943;DHT22;38809;53.300;6.614;2022-11-04T05:07:41;10.00;99.90
52943;DHT22;38809;53.300;6.614;2022-11-04T05:10:08;10.00;99.90
52943;DHT22;38809;53.300;6.614;2022-11-04T05:12:35;10.00;99.90
52943;DHT22;38809;53.300;6.614;2022-11-04T05:15:20;10.10;99.90
52943;DHT22;38809;53.300;6.614;2022-11-04T05:17:46;10.00;99.90
52943;DHT22;38809;53.300;6.614;2022-11-04T05:20:11;10.00;99.90
52943;DHT22;38809;53.300;6.614;2022-11-04T05:22:38;10.00;99.90
52943;DHT22;38809;53.300;6.614;2022-11-04T05:25:04;10.30;99.90
52943;DHT22;38809;53.300;6.614;2022-11-04T05:27:30;9.90;99.90
52943;DHT22;38809;53.300;6.614;2022-11-04T05:29:55;10.00;99.90
52943;DHT22;38809;53.300;6.614;2022-11-04T05:32:21;9.90;99.90
52943;DHT22;38809;53.300;6.614;2022-11-04T05:34:47;9.90;99.90
52943;DHT22;38809;53.300;6.614;2022-11-04T05:37:12;10.00;99.90
52943;DHT22;38809;53.300;6.614;2022-11-04T05:39:38;9.90;99.90
52943;DHT22;38809;53.300;6.614;2022-11-04T05:42:04;10.00;99.90
52943;DHT22;38809;53.300;6.614;2022-11-04T05:44:29;10.00;99.90
52943;DHT22;38809;53.300;6.614;2022-11-04T05:46:55;10.00;99.90
52943;DHT22;38809;53.300;6.614;2022-11-04T05:49:21;10.00;99.90
52943;DHT22;38809;53.300;6.614;2022-11-04T05:51:46;10.20;99.90
52943;DHT22;38809;53.300;6.614;2022-11-04T05:54:12;9.90;99.90
52943;DHT22;38809;53.300;6.614;2022-11-04T05:56:38;9.90;99.90
52943;DHT22;38809;53.300;6.614;2022-11-04T05:59:03;9.90;99.90
52943;DHT22;38809;53.300;6.614;2022-11-04T06:01:34;9.90;99.90
52943;DHT22;38809;53.300;6.614;2022-11-04T06:04:01;9.90;99.90
52943;DHT22;38809;53.300;6.614;2022-11-04T06:06:30;9.90;99.90
52943;DHT22;38809;53.300;6.614;2022-11-04T06:08:56;9.90;99.90
52943;DHT22;38809;53.300;6.614;2022-11-04T06:11:24;9.90;99.90
52943;DHT22;38809;53.300;6.614;2022-11-04T06:13:50;9.90;99.90
52943;DHT22;38809;53.300;6.614;2022-11-04T06:16:16;9.80;99.90
52943;DHT22;38809;53.300;6.614;2022-11-04T06:18:41;9.80;99.90
52943;DHT22;38809;53.300;6.614;2022-11-04T06:23:37;9.80;99.90
52943;DHT22;38809;53.300;6.614;2022-11-04T06:26:03;9.70;99.90
52943;DHT22;38809;53.300;6.614;2022-11-04T06:28:29;9.70;99.90
52943;DHT22;38809;53.300;6.614;2022-11-04T06:30:59;9.80;99.90
52943;DHT22;38809;53.300;6.614;2022-11-04T06:33:26;9.80;99.90
52943;DHT22;38809;53.300;6.614;2022-11-04T06:35:55;9.70;99.90
52943;DHT22;38809;53.300;6.614;2022-11-04T06:38:21;9.80;99.90
52943;DHT22;38809;53.300;6.614;2022-11-04T06:40:46;10.00;99.90
52943;DHT22;38809;53.300;6.614;2022-11-04T06:43:12;9.60;99.90
52943;DHT22;38809;53.300;6.614;2022-11-04T06:45:38;9.70;99.90
52943;DHT22;38809;53.300;6.614;2022-11-04T06:48:04;9.60;99.90
52943;DHT22;38809;53.300;6.614;2022-11-04T06:50:29;9.60;99.90
52943;DHT22;38809;53.300;6.614;2022-11-04T06:52:55;9.60;99.90
52943;DHT22;38809;53.300;6.614;2022-11-04T06:55:21;9.50;99.90
52943;DHT22;38809;53.300;6.614;2022-11-04T06:57:46;9.50;99.90
52943;DHT22;38809;53.300;6.614;2022-11-04T07:00:12;9.40;99.90
52943;DHT22;38809;53.300;6.614;2022-11-04T07:02:38;9.50;99.90
52943;DHT22;38809;53.300;6.614;2022-11-04T07:05:04;9.50;99.90
52943;DHT22;38809;53.300;6.614;2022-11-04T07:07:30;9.50;99.90
52943;DHT22;38809;53.300;6.614;2022-11-04T07:09:56;9.50;99.90
52943;DHT22;38809;53.300;6.614;2022-11-04T07:12:22;9.60;99.90
52943;DHT22;38809;53.300;6.614;2022-11-04T07:14:49;9.50;99.90
52943;DHT22;38809;53.300;6.614;2022-11-04T07:17:15;9.30;99.90
52943;DHT22;38809;53.300;6.614;2022-11-04T07:19:41;9.60;99.90
52943;DHT22;38809;53.300;6.614;2022-11-04T07:22:06;9.70;99.90
52943;DHT22;38809;53.300;6.614;2022-11-04T07:24:33;9.70;99.90
52943;DHT22;38809;53.300;6.614;2022-11-04T07:26:59;9.80;99.90
52943;DHT22;38809;53.300;6.614;2022-11-04T07:29:25;10.00;99.90
52943;DHT22;38809;53.300;6.614;2022-11-04T07:31:50;9.90;99.90
52943;DHT22;38809;53.300;6.614;2022-11-04T07:34:16;10.00;99.90
52943;DHT22;38809;53.300;6.614;2022-11-04T07:36:42;9.80;99.90
52943;DHT22;38809;53.300;6.614;2022-11-04T07:39:07;9.70;99.90
52943;DHT22;38809;53.300;6.614;2022-11-04T07:41:33;9.70;99.90
52943;DHT22;38809;53.300;6.614;2022-11-04T07:43:59;9.70;99.90
52943;DHT22;38809;53.300;6.614;2022-11-04T07:46:26;9.80;99.90
52943;DHT22;38809;53.300;6.614;2022-11-04T07:48:52;9.80;99.90
52943;DHT22;38809;53.300;6.614;2022-11-04T07:51:19;9.70;99.90
52943;DHT22;38809;53.300;6.614;2022-11-04T07:53:45;9.80;99.90
52943;DHT22;38809;53.300;6.614;2022-11-04T07:56:12;9.80;99.90
52943;DHT22;38809;53.300;6.614;2022-11-04T07:58:38;9.80;99.90
52943;DHT22;38809;53.300;6.614;2022-11-04T08:01:06;9.90;99.90
52943;DHT22;38809;53.300;6.614;2022-11-04T08:03:33;10.00;99.90
52943;DHT22;38809;53.300;6.614;2022-11-04T08:06:02;9.90;99.90
52943;DHT22;38809;53.300;6.614;2022-11-04T08:08:28;10.00;99.90
52943;DHT22;38809;53.300;6.614;2022-11-04T08:11:06;9.90;99.90
52943;DHT22;38809;53.300;6.614;2022-11-04T08:13:35;9.90;99.90
52943;DHT22;38809;53.300;6.614;2022-11-04T08:16:03;10.00;99.90
52943;DHT22;38809;53.300;6.614;2022-11-04T08:18:30;10.00;99.90
52943;DHT22;38809;53.300;6.614;2022-11-04T08:20:56;10.10;99.90
52943;DHT22;38809;53.300;6.614;2022-11-04T08:23:21;10.20;99.90
52943;DHT22;38809;53.300;6.614;2022-11-04T08:25:47;10.20;99.90
52943;DHT22;38809;53.300;6.614;2022-11-04T08:28:13;10.30;99.90
52943;DHT22;38809;53.300;6.614;2022-11-04T08:30:56;10.30;99.90
52943;DHT22;38809;53.300;6.614;2022-11-04T08:33:25;10.40;99.90
52943;DHT22;38809;53.300;6.614;2022-11-04T08:35:52;10.40;99.90
52943;DHT22;38809;53.300;6.614;2022-11-04T08:38:18;10.50;99.90
52943;DHT22;38809;53.300;6.614;2022-11-04T08:40:44;10.60;99.90
52943;DHT22;38809;53.300;6.614;2022-11-04T08:43:10;10.60;99.90
52943;DHT22;38809;53.300;6.614;2022-11-04T08:45:44;10.50;99.90
52943;DHT22;38809;53.300;6.614;2022-11-04T08:48:11;10.50;99.90
52943;DHT22;38809;53.300;6.614;2022-11-04T08:50:37;10.50;99.90
52943;DHT22;38809;53.300;6.614;2022-11-04T08:53:03;10.50;99.90
52943;DHT22;38809;53.300;6.614;2022-11-04T08:55:29;10.50;99.90
52943;DHT22;38809;53.300;6.614;2022-11-04T08:57:55;10.50;99.90
52943;DHT22;38809;53.300;6.614;2022-11-04T09:00:21;10.50;99.90
52943;DHT22;38809;53.300;6.614;2022-11-04T09:02:47;10.50;99.90
52943;DHT22;38809;53.300;6.614;2022-11-04T09:05:13;10.60;99.90
52943;DHT22;38809;53.300;6.614;2022-11-04T09:07:42;10.70;99.90
52943;DHT22;38809;53.300;6.614;2022-11-04T09:10:09;10.80;99.90
52943;DHT22;38809;53.300;6.614;2022-11-04T09:12:35;10.80;99.90
52943;DHT22;38809;53.300;6.614;2022-11-04T09:15:01;10.80;99.90
52943;DHT22;38809;53.300;6.614;2022-11-04T09:17:27;11.00;99.90
52943;DHT22;38809;53.300;6.614;2022-11-04T09:19:52;11.10;99.90
52943;DHT22;38809;53.300;6.614;2022-11-04T09:22:18;11.10;99.90
52943;DHT22;38809;53.300;6.614;2022-11-04T09:24:44;11.20;99.90
52943;DHT22;38809;53.300;6.614;2022-11-04T09:27:10;11.40;99.90
52943;DHT22;38809;53.300;6.614;2022-11-04T09:29:36;11.40;99.90
52943;DHT22;38809;53.300;6.614;2022-11-04T09:32:02;11.40;99.90
52943;DHT22;38809;53.300;6.614;2022-11-04T09:34:29;11.50;99.90
52943;DHT22;38809;53.300;6.614;2022-11-04T09:36:55;11.60;99.90
52943;DHT22;38809;53.300;6.614;2022-11-04T09:39:22;11.70;99.90
52943;DHT22;38809;53.300;6.614;2022-11-04T09:47:13;11.70;99.90
52943;DHT22;38809;53.300;6.614;2022-11-04T09:49:42;11.80;99.90
52943;DHT22;38809;53.300;6.614;2022-11-04T09:52:23;11.50;99.90
52943;DHT22;38809;53.300;6.614;2022-11-04T09:54:55;11.60;99.90
52943;DHT22;38809;53.300;6.614;2022-11-04T09:57:23;11.60;99.90
52943;DHT22;38809;53.300;6.614;2022-11-04T09:59:49;11.50;99.90
52943;DHT22;38809;53.300;6.614;2022-11-04T10:06:40;11.50;99.90
52943;DHT22;38809;53.300;6.614;2022-11-04T10:09:05;11.60;99.90
52943;DHT22;38809;53.300;6.614;2022-11-04T10:14:43;11.90;99.90
52943;DHT22;38809;53.300;6.614;2022-11-04T10:23:00;12.30;99.90
52943;DHT22;38809;53.300;6.614;2022-11-04T10:25:37;12.40;99.90
52943;DHT22;38809;53.300;6.614;2022-11-04T10:28:09;12.60;99.90
52943;DHT22;38809;53.300;6.614;2022-11-04T10:30:40;12.50;99.90
52943;DHT22;38809;53.300;6.614;2022-11-04T10:35:50;12.60;99.90
52943;DHT22;38809;53.300;6.614;2022-11-04T10:38:23;12.70;99.90
52943;DHT22;38809;53.300;6.614;2022-11-04T10:40:54;12.80;99.90
52943;DHT22;38809;53.300;6.614;2022-11-04T10:43:35;13.00;99.90
52943;DHT22;38809;53.300;6.614;2022-11-04T10:46:25;13.00;99.90
52943;DHT22;38809;53.300;6.614;2022-11-04T10:48:56;12.80;99.90
52943;DHT22;38809;53.300;6.614;2022-11-04T10:51:23;12.70;99.90
52943;DHT22;38809;53.300;6.614;2022-11-04T10:53:59;12.60;99.90
52943;DHT22;38809;53.300;6.614;2022-11-04T10:56:37;12.90;99.90
52943;DHT22;38809;53.300;6.614;2022-11-04T11:01:53;13.10;99.90
52943;DHT22;38809;53.300;6.614;2022-11-04T11:04:31;13.00;99.90
52943;DHT22;38809;53.300;6.614;2022-11-04T11:07:08;13.20;99.90
52943;DHT22;38809;53.300;6.614;2022-11-04T11:09:42;13.10;99.90
52943;DHT22;38809;53.300;6.614;2022-11-04T11:14:40;13.00;99.90
52943;DHT22;38809;53.300;6.614;2022-11-04T11:19:57;12.80;99.90
52943;DHT22;38809;53.300;6.614;2022-11-04T11:22:48;12.90;99.90
52943;DHT22;38809;53.300;6.614;2022-11-04T11:27:48;12.80;99.90
52943;DHT22;38809;53.300;6.614;2022-11-04T11:33:28;13.00;99.90
52943;DHT22;38809;53.300;6.614;2022-11-04T11:38:29;12.90;99.90
52943;DHT22;38809;53.300;6.614;2022-11-04T11:43:32;12.80;99.90
52943;DHT22;38809;53.300;6.614;2022-11-04T11:45:59;12.60;99.90
52943;DHT22;38809;53.300;6.614;2022-11-04T11:48:50;12.40;99.90
52943;DHT22;38809;53.300;6.614;2022-11-04T11:51:25;12.20;99.90
52943;DHT22;38809;53.300;6.614;2022-11-04T11:56:37;12.00;99.90
52943;DHT22;38809;53.300;6.614;2022-11-04T12:02:25;12.00;99.90
52943;DHT22;38809;53.300;6.614;2022-11-04T12:04:51;11.90;99.90
52943;DHT22;38809;53.300;6.614;2022-11-04T12:07:36;11.90;99.90
52943;DHT22;38809;53.300;6.614;2022-11-04T12:23:13;11.30;99.90
52943;DHT22;38809;53.300;6.614;2022-11-04T12:31:32;11.40;99.90
52943;DHT22;38809;53.300;6.614;2022-11-04T12:33:53;11.40;99.90
52943;DHT22;38809;53.300;6.614;2022-11-04T12:36:54;11.60;99.90
52943;DHT22;38809;53.300;6.614;2022-11-04T12:39:27;11.80;99.90
52943;DHT22;38809;53.300;6.614;2022-11-04T12:45:18;12.00;99.90
52943;DHT22;38809;53.300;6.614;2022-11-04T12:47:48;12.00;99.90
52943;DHT22;38809;53.300;6.614;2022-11-04T12:55:54;11.90;99.90
52943;DHT22;38809;53.300;6.614;2022-11-04T13:01:28;11.90;99.90
52943;DHT22;38809;53.300;6.614;2022-11-04T13:04:21;11.80;99.90
52943;DHT22;38809;53.300;6.614;2022-11-04T13:07:03;11.80;99.90
52943;DHT22;38809;53.300;6.614;2022-11-04T13:09:41;11.70;99.90
52943;DHT22;38809;53.300;6.614;2022-11-04T13:12:20;11.70;99.90
52943;DHT22;38809;53.300;6.614;2022-11-04T13:15:01;11.60;99.90
52943;DHT22;38809;53.300;6.614;2022-11-04T13:17:31;11.50;99.90
52943;DHT22;38809;53.300;6.614;2022-11-04T13:22:44;11.50;99.90
52943;DHT22;38809;53.300;6.614;2022-11-04T13:25:27;11.50;99.90
52943;DHT22;38809;53.300;6.614;2022-11-04T13:27:53;11.50;99.90
52943;DHT22;38809;53.300;6.614;2022-11-04T13:38:21;12.00;99.90
52943;DHT22;38809;53.300;6.614;2022-11-04T13:41:01;12.20;99.90
52943;DHT22;38809;53.300;6.614;2022-11-04T13:43:36;12.40;99.90
52943;DHT22;38809;53.300;6.614;2022-11-04T13:48:36;12.60;99.90
52943;DHT22;38809;53.300;6.614;2022-11-04T13:51:11;12.60;99.90
52943;DHT22;38809;53.300;6.614;2022-11-04T13:53:55;12.60;99.90
52943;DHT22;38809;53.300;6.614;2022-11-04T13:56:40;12.60;99.90
52943;DHT22;38809;53.300;6.614;2022-11-04T14:01:37;12.60;99.90
52943;DHT22;38809;53.300;6.614;2022-11-04T14:04:30;12.50;99.90
52943;DHT22;38809;53.300;6.614;2022-11-04T14:06:58;12.40;99.90
52943;DHT22;38809;53.300;6.614;2022-11-04T14:09:48;12.40;99.90
52943;DHT22;38809;53.300;6.614;2022-11-04T14:20:24;12.00;99.90
52943;DHT22;38809;53.300;6.614;2022-11-04T14:22:53;12.00;99.90
52943;DHT22;38809;53.300;6.614;2022-11-04T14:25:33;12.00;99.90
52943;DHT22;38809;53.300;6.614;2022-11-04T14:33:48;12.10;99.90
52943;DHT22;38809;53.300;6.614;2022-11-04T14:41:49;12.20;99.90
52943;DHT22;38809;53.300;6.614;2022-11-04T14:44:37;12.10;99.90
52943;DHT22;38809;53.300;6.614;2022-11-04T14:52:43;12.10;99.90
52943;DHT22;38809;53.300;6.614;2022-11-04T14:57:37;12.10;99.90
52943;DHT22;38809;53.300;6.614;2022-11-04T15:00:26;12.00;99.90
52943;DHT22;38809;53.300;6.614;2022-11-04T15:05:31;11.90;99.90
52943;DHT22;38809;53.300;6.614;2022-11-04T15:08:02;11.80;99.90
52943;DHT22;38809;53.300;6.614;2022-11-04T15:10:28;11.70;99.90
52943;DHT22;38809;53.300;6.614;2022-11-04T15:12:59;11.60;99.90
52943;DHT22;38809;53.300;6.614;2022-11-04T15:15:34;11.60;99.90
52943;DHT22;38809;53.300;6.614;2022-11-04T15:18:13;11.50;99.90
52943;DHT22;38809;53.300;6.614;2022-11-04T15:20:54;11.40;99.90
52943;DHT22;38809;53.300;6.614;2022-11-04T15:25:52;11.40;99.90
52943;DHT22;38809;53.300;6.614;2022-11-04T15:28:24;11.30;99.90
52943;DHT22;38809;53.300;6.614;2022-11-04T15:31:06;11.30;99.90
52943;DHT22;38809;53.300;6.614;2022-11-04T15:33:44;11.30;99.90
52943;DHT22;38809;53.300;6.614;2022-11-04T15:36:28;11.30;99.90
52943;DHT22;38809;53.300;6.614;2022-11-04T15:39:28;11.20;99.90
52943;DHT22;38809;53.300;6.614;2022-11-04T15:41:54;11.20;99.90
52943;DHT22;38809;53.300;6.614;2022-11-04T15:44:44;11.10;99.90
52943;DHT22;38809;53.300;6.614;2022-11-04T15:49:43;11.10;99.90
52943;DHT22;38809;53.300;6.614;2022-11-04T15:52:17;10.90;99.90
52943;DHT22;38809;53.300;6.614;2022-11-04T15:54:47;10.80;99.90
52943;DHT22;38809;53.300;6.614;2022-11-04T15:57:37;10.80;99.90
52943;DHT22;38809;53.300;6.614;2022-11-04T16:00:04;10.80;99.90
52943;DHT22;38809;53.300;6.614;2022-11-04T16:02:33;10.70;99.90
52943;DHT22;38809;53.300;6.614;2022-11-04T16:07:44;10.60;99.90
52943;DHT22;38809;53.300;6.614;2022-11-04T16:10:39;10.50;99.90
52943;DHT22;38809;53.300;6.614;2022-11-04T16:18:38;10.40;99.90
52943;DHT22;38809;53.300;6.614;2022-11-04T16:21:23;10.30;99.90
52943;DHT22;38809;53.300;6.614;2022-11-04T16:26:30;10.20;99.90
52943;DHT22;38809;53.300;6.614;2022-11-04T16:28:57;10.20;99.90
52943;DHT22;38809;53.300;6.614;2022-11-04T16:31:41;10.20;99.90
52943;DHT22;38809;53.300;6.614;2022-11-04T16:34:12;10.10;99.90
52943;DHT22;38809;53.300;6.614;2022-11-04T16:36:38;10.00;99.90
52943;DHT22;38809;53.300;6.614;2022-11-04T16:39:05;10.10;99.90
52943;DHT22;38809;53.300;6.614;2022-11-04T16:41:35;10.00;99.90
52943;DHT22;38809;53.300;6.614;2022-11-04T16:44:02;9.90;99.90
52943;DHT22;38809;53.300;6.614;2022-11-04T16:46:29;9.90;99.90
52943;DHT22;38809;53.300;6.614;2022-11-04T16:48:56;9.90;99.90
52943;DHT22;38809;53.300;6.614;2022-11-04T16:51:23;9.80;99.90
52943;DHT22;38809;53.300;6.614;2022-11-04T16:53:50;9.80;99.90
52943;DHT22;38809;53.300;6.614;2022-11-04T16:56:18;9.60;99.90
52943;DHT22;38809;53.300;6.614;2022-11-04T16:58:43;9.70;99.90
52943;DHT22;38809;53.300;6.614;2022-11-04T17:01:13;9.60;99.90
52943;DHT22;38809;53.300;6.614;2022-11-04T17:03:40;9.60;99.90
52943;DHT22;38809;53.300;6.614;2022-11-04T17:06:09;9.60;99.90
52943;DHT22;38809;53.300;6.614;2022-11-04T17:08:34;9.60;99.90
52943;DHT22;38809;53.300;6.614;2022-11-04T17:11:01;9.50;99.90
52943;DHT22;38809;53.300;6.614;2022-11-04T17:13:27;9.60;99.90
52943;DHT22;38809;53.300;6.614;2022-11-04T17:15:52;9.50;99.90
52943;DHT22;38809;53.300;6.614;2022-11-04T17:18:18;9.40;99.90
52943;DHT22;38809;53.300;6.614;2022-11-04T17:20:48;9.30;99.90
52943;DHT22;38809;53.300;6.614;2022-11-04T17:23:14;9.30;99.90
52943;DHT22;38809;53.300;6.614;2022-11-04T17:25:41;9.20;99.90
52943;DHT22;38809;53.300;6.614;2022-11-04T17:28:07;9.20;99.90
52943;DHT22;38809;53.300;6.614;2022-11-04T17:30:33;9.20;99.90
52943;DHT22;38809;53.300;6.614;2022-11-04T17:32:58;9.30;99.90
52943;DHT22;38809;53.300;6.614;2022-11-04T17:35:25;9.30;99.90
52943;DHT22;38809;53.300;6.614;2022-11-04T17:37:51;9.20;99.90
52943;DHT22;38809;53.300;6.614;2022-11-04T17:40:18;9.50;99.90
52943;DHT22;38809;53.300;6.614;2022-11-04T17:42:45;9.20;99.90
52943;DHT22;38809;53.300;6.614;2022-11-04T17:45:30;9.20;99.90
52943;DHT22;38809;53.300;6.614;2022-11-04T17:47:56;9.20;99.90
52943;DHT22;38809;53.300;6.614;2022-11-04T17:50:21;9.20;99.90
52943;DHT22;38809;53.300;6.614;2022-11-04T17:52:47;9.10;99.90
52943;DHT22;38809;53.300;6.614;2022-11-04T17:55:13;9.10;99.90
52943;DHT22;38809;53.300;6.614;2022-11-04T17:57:39;9.10;99.90
52943;DHT22;38809;53.300;6.614;2022-11-04T18:00:06;10.30;99.90
52943;DHT22;38809;53.300;6.614;2022-11-04T18:02:33;9.00;99.90
52943;DHT22;38809;53.300;6.614;2022-11-04T18:04:59;9.00;99.90
52943;DHT22;38809;53.300;6.614;2022-11-04T18:07:27;9.00;99.90
52943;DHT22;38809;53.300;6.614;2022-11-04T18:09:52;9.00;99.90
52943;DHT22;38809;53.300;6.614;2022-11-04T18:12:18;9.00;99.90
52943;DHT22;38809;53.300;6.614;2022-11-04T18:15:04;8.90;99.90
52943;DHT22;38809;53.300;6.614;2022-11-04T18:17:30;8.90;99.90
52943;DHT22;38809;53.300;6.614;2022-11-04T18:19:56;9.10;99.90
52943;DHT22;38809;53.300;6.614;2022-11-04T18:22:21;8.90;99.90
52943;DHT22;38809;53.300;6.614;2022-11-04T18:24:47;9.00;99.90
52943;DHT22;38809;53.300;6.614;2022-11-04T18:27:13;9.00;99.90
52943;DHT22;38809;53.300;6.614;2022-11-04T18:29:39;9.00;99.90
52943;DHT22;38809;53.300;6.614;2022-11-04T18:32:05;8.90;99.90
52943;DHT22;38809;53.300;6.614;2022-11-04T18:34:31;8.80;99.90
52943;DHT22;38809;53.300;6.614;2022-11-04T18:36:57;9.00;99.90
52943;DHT22;38809;53.300;6.614;2022-11-04T18:39:24;8.90;99.90
52943;DHT22;38809;53.300;6.614;2022-11-04T18:41:50;8.90;99.90
52943;DHT22;38809;53.300;6.614;2022-11-04T18:44:18;8.80;99.90
52943;DHT22;38809;53.300;6.614;2022-11-04T18:46:45;8.70;99.90
52943;DHT22;38809;53.300;6.614;2022-11-04T18:49:12;8.70;99.90